Terminal Aerodrome Forecast
Issued by NWS

Home | Current Version | Previous Version | Text Only | Print | Product List | Glossary On
Versions: 1 2 3 4 5 6 7 8 9 10 11 12 13 14
000
FTUS45 KABQ 242300
TAFTCC
TAF
KTCC 242321Z 2500/2524 22015KT P6SM FEW090
     FM250200 19011KT P6SM SKC
     FM251600 24014G22KT P6SM FEW090=

USA.gov is the U.S. government's official web portal to all federal, state and local government web resources and services.